Time;durP1;ratioP1;P1;durP2;ratioP2;P2;SDS_P1;SDS_P2;PMS_P1;PMS_P2;Temp;Humidity;BMP_temperature;BMP_pressure;BME280_temperature;BME280_humidity;BME280_pressure;Samples;Min_cycle;Max_cycle;Signal;HPM_P1;HPM_P2
2022/04/29 00:00:25;;;;;;;;;27.33;24.00;;;;;17.38;42.12;101888.81;5078769;27;45488;-61
2022/04/29 00:02:51;;;;;;;;;26.00;26.00;;;;;17.37;42.23;101883.53;5079244;27;45726;-62
2022/04/29 00:05:17;;;;;;;;;26.00;24.33;;;;;17.34;41.75;101884.53;5078893;27;45306;-62
2022/04/29 00:07:43;;;;;;;;;27.67;26.33;;;;;17.30;42.07;101874.97;5078280;28;45366;-62
2022/04/29 00:10:13;;;;;;;;;26.67;23.67;;;;;17.29;42.18;101870.56;5078315;27;45374;-62
2022/04/29 00:12:41;;;;;;;;;25.00;25.00;;;;;17.27;42.36;101874.22;5078472;27;45600;-62
2022/04/29 00:15:08;;;;;;;;;28.33;25.67;;;;;17.29;42.11;101877.69;5078518;27;45450;-62
2022/04/29 00:17:33;;;;;;;;;23.00;22.00;;;;;17.25;42.37;101870.75;5078045;27;46323;-61
2022/04/29 00:19:58;;;;;;;;;28.00;27.33;;;;;17.26;42.89;101864.53;5078280;27;45450;-63
2022/04/29 00:22:24;;;;;;;;;24.67;24.67;;;;;17.19;42.57;101856.81;5078430;27;45449;-60
2022/04/29 00:24:49;;;;;;;;;26.00;25.00;;;;;17.13;43.16;101853.56;5078473;27;45590;-63
2022/04/29 00:27:15;;;;;;;;;25.33;24.33;;;;;17.05;42.73;101853.88;5077825;27;51414;-61
2022/04/29 00:29:40;;;;;;;;;24.00;23.00;;;;;17.02;43.00;101845.19;5077872;27;45374;-62
2022/04/29 00:32:06;;;;;;;;;26.67;24.00;;;;;16.93;43.32;101847.28;5078253;27;45452;-63
2022/04/29 00:34:31;;;;;;;;;30.67;25.67;;;;;16.90;43.01;101847.44;5078107;27;45419;-61
2022/04/29 00:36:56;;;;;;;;;26.00;25.00;;;;;16.86;43.79;101848.47;5078093;27;45525;-62
2022/04/29 00:39:23;;;;;;;;;24.67;24.00;;;;;16.86;43.70;101844.94;5078139;27;45411;-62
2022/04/29 00:41:49;;;;;;;;;27.67;26.67;;;;;16.82;43.60;101843.34;5078003;27;45558;-62
2022/04/29 00:44:14;;;;;;;;;31.67;29.00;;;;;16.72;44.67;101843.69;5077944;27;45449;-62
2022/04/29 00:46:43;;;;;;;;;27.33;25.00;;;;;16.69;43.96;101840.31;5077946;27;45477;-62
2022/04/29 00:49:11;;;;;;;;;30.33;26.33;;;;;16.71;43.72;101839.31;5077998;27;45397;-62
2022/04/29 00:51:38;;;;;;;;;33.67;32.67;;;;;16.64;43.87;101831.66;5077359;27;45409;-62
2022/04/29 00:54:07;;;;;;;;;29.33;28.00;;;;;16.66;44.39;101836.00;5077591;28;45619;-61
2022/04/29 00:56:37;;;;;;;;;29.67;28.00;;;;;16.57;44.73;101836.34;5076067;28;45578;-63
2022/04/29 00:59:07;;;;;;;;;32.67;30.00;;;;;16.56;43.91;101835.47;5077790;27;45457;-62
2022/04/29 01:01:34;;;;;;;;;33.67;32.33;;;;;16.48;43.84;101834.94;5077815;27;45362;-62
2022/04/29 01:04:04;;;;;;;;;33.33;30.00;;;;;16.48;44.29;101834.06;5077638;27;45556;-62
2022/04/29 01:06:30;;;;;;;;;33.00;32.00;;;;;16.49;44.34;101822.50;5077570;27;45441;-62
2022/04/29 01:08:56;;;;;;;;;32.67;31.00;;;;;16.52;44.64;101823.28;5077382;28;45457;-62
2022/04/29 01:11:24;;;;;;;;;27.00;25.67;;;;;16.53;45.22;101822.34;5077618;28;45430;-62
2022/04/29 01:13:51;;;;;;;;;31.33;31.00;;;;;16.53;43.96;101817.03;5077631;27;45267;-62
2022/04/29 01:16:18;;;;;;;;;31.33;28.67;;;;;16.55;44.88;101819.63;5092978;27;45559;-62
2022/04/29 01:18:45;;;;;;;;;27.00;26.00;;;;;16.50;44.74;101819.81;5077240;27;45413;-62
2022/04/29 01:21:10;;;;;;;;;30.00;28.67;;;;;16.41;45.08;101806.03;5077473;27;45434;-61
2022/04/29 01:23:36;;;;;;;;;26.67;26.00;;;;;16.42;45.16;101805.13;5077665;27;45644;-62
2022/04/29 01:26:02;;;;;;;;;34.00;31.00;;;;;16.46;44.42;101796.94;5075695;28;45381;-62
2022/04/29 01:28:30;;;;;;;;;30.33;29.67;;;;;16.50;44.24;101797.69;5077328;27;45443;-62
2022/04/29 01:30:57;;;;;;;;;31.33;30.33;;;;;16.50;44.23;101803.88;5077700;27;45426;-62
2022/04/29 01:33:25;;;;;;;;;30.00;29.00;;;;;16.52;44.97;101798.47;5077307;27;45555;-61
2022/04/29 01:35:50;;;;;;;;;34.67;31.33;;;;;16.53;44.15;101803.75;5077025;27;45675;-63
2022/04/29 01:38:16;;;;;;;;;34.00;32.33;;;;;16.48;44.84;101799.56;5077199;27;45522;-62
2022/04/29 01:40:42;;;;;;;;;33.33;30.00;;;;;16.41;44.80;101814.84;5077161;27;45464;-62
2022/04/29 01:43:07;;;;;;;;;35.67;31.00;;;;;16.35;44.53;101813.31;5077215;27;45517;-62
2022/04/29 01:45:32;;;;;;;;;34.00;32.00;;;;;16.37;44.16;101815.91;5076732;27;45445;-61
2022/04/29 01:47:58;;;;;;;;;32.33;30.00;;;;;16.38;45.51;101804.34;5076936;27;45441;-61
2022/04/29 01:50:23;;;;;;;;;39.50;33.50;;;;;16.36;45.39;101808.84;5077130;27;45497;-61
2022/04/29 01:52:48;;;;;;;;;32.67;31.00;;;;;16.34;45.41;101813.38;5077004;27;45461;-62
2022/04/29 01:55:14;;;;;;;;;29.67;29.67;;;;;16.28;44.74;101803.00;5076816;28;45490;-61
2022/04/29 01:57:39;;;;;;;;;33.00;31.00;;;;;16.31;45.43;101800.25;5076856;28;45305;-62
2022/04/29 02:00:05;;;;;;;;;36.33;33.00;;;;;16.35;44.31;101799.19;5076686;27;45429;-61
2022/04/29 02:02:31;;;;;;;;;34.00;31.00;;;;;16.36;45.15;101795.56;5076521;27;45543;-64
2022/04/29 02:04:56;;;;;;;;;37.33;33.00;;;;;16.33;44.88;101807.22;5076141;27;45474;-62
2022/04/29 02:07:22;;;;;;;;;31.67;30.33;;;;;16.22;45.26;101809.41;5076510;27;45429;-62
2022/04/29 02:09:47;;;;;;;;;36.00;31.67;;;;;16.09;45.62;101817.00;5076453;27;45455;-62
2022/04/29 02:12:14;;;;;;;;;37.00;33.33;;;;;16.08;45.30;101817.06;5076673;27;45640;-62
2022/04/29 02:14:42;;;;;;;;;30.33;30.33;;;;;16.00;44.76;101817.34;5076621;27;45386;-61
2022/04/29 02:17:09;;;;;;;;;29.67;29.67;;;;;16.02;45.33;101820.81;5076338;27;45632;-62
2022/04/29 02:19:36;;;;;;;;;38.67;34.33;;;;;15.94;44.89;101804.34;5076594;27;45434;-62
2022/04/29 02:22:03;;;;;;;;;34.00;31.67;;;;;16.02;45.75;101815.50;5076408;27;45473;-63
2022/04/29 02:24:29;;;;;;;;;31.33;31.00;;;;;16.05;45.47;101818.03;5075988;28;46361;-63
2022/04/29 02:26:55;;;;;;;;;30.67;30.67;;;;;16.03;44.95;101813.72;5076319;27;45504;-63
2022/04/29 02:29:21;;;;;;;;;33.67;30.00;;;;;16.03;45.82;101819.88;5076331;27;45497;-63
2022/04/29 02:31:47;;;;;;;;;33.67;31.00;;;;;16.06;45.21;101819.75;5076129;27;45577;-62
2022/04/29 02:34:13;;;;;;;;;35.67;33.33;;;;;16.05;45.02;101827.81;5075997;27;45420;-63
2022/04/29 02:36:40;;;;;;;;;35.33;33.00;;;;;16.00;45.72;101827.97;5076117;27;45528;-62
2022/04/29 02:39:06;;;;;;;;;31.33;30.00;;;;;16.00;44.96;101830.63;5076415;27;45468;-62
2022/04/29 02:41:31;;;;;;;;;32.33;31.00;;;;;15.98;45.07;101827.16;5076135;27;45397;-62
2022/04/29 02:43:56;;;;;;;;;37.33;32.67;;;;;15.89;45.12;101830.16;5075903;28;45404;-62
2022/04/29 02:46:22;;;;;;;;;37.00;32.00;;;;;15.87;45.53;101824.06;5074303;28;45468;-62
2022/04/29 02:48:48;;;;;;;;;35.33;31.00;;;;;15.88;45.90;101826.66;5076336;27;45794;-62
2022/04/29 02:51:15;;;;;;;;;35.33;32.67;;;;;15.89;45.37;101827.50;5076315;27;45481;-62
2022/04/29 02:53:40;;;;;;;;;36.33;32.67;;;;;15.96;45.59;101834.34;5075511;28;46088;-62
2022/04/29 02:56:06;;;;;;;;;33.33;30.67;;;;;15.93;46.08;101818.50;5075733;27;45504;-62
2022/04/29 02:58:31;;;;;;;;;34.00;31.00;;;;;15.91;45.24;101825.69;5075895;27;45480;-62
2022/04/29 03:00:57;;;;;;;;;31.67;31.00;;;;;15.82;45.14;101821.56;5075724;27;45415;-62
2022/04/29 03:03:22;;;;;;;;;35.67;33.00;;;;;15.82;45.38;101828.66;5075801;27;46128;-61
2022/04/29 03:05:48;;;;;;;;;34.67;31.33;;;;;15.78;45.75;101816.44;5075824;27;45434;-61
2022/04/29 03:08:13;;;;;;;;;31.67;29.67;;;;;15.87;46.32;101818.75;5076018;27;45568;-61
2022/04/29 03:10:38;;;;;;;;;37.33;33.33;;;;;15.88;44.64;101821.34;5074414;28;45380;-62
2022/04/29 03:13:04;;;;;;;;;33.67;31.33;;;;;15.81;45.17;101821.63;5075578;27;45470;-62
2022/04/29 03:15:30;;;;;;;;;33.00;30.00;;;;;15.82;44.81;101820.69;5074674;27;45434;-62
2022/04/29 03:20:41;;;;;;;;;31.00;30.67;;;;;15.70;45.61;101813.22;5075529;28;45382;-62
2022/04/29 03:23:08;;;;;;;;;32.33;30.00;;;;;15.71;45.88;101812.28;5073881;28;46251;-62
2022/04/29 03:25:34;;;;;;;;;34.67;31.33;;;;;15.75;45.46;101819.22;5074150;28;45445;-61
2022/04/29 03:28:01;;;;;;;;;34.00;29.33;;;;;15.74;46.22;101813.03;5075472;27;45520;-62
2022/04/29 03:30:26;;;;;;;;;33.00;32.00;;;;;15.77;45.26;101812.03;5075398;27;45618;-62
2022/04/29 03:32:56;;;;;;;;;51.25;43.50;;;;;15.70;46.05;101808.78;5075200;27;45493;-62
2022/04/29 03:35:22;;;;;;;;;32.33;30.33;;;;;15.69;45.64;101809.72;5075416;27;45537;-62
2022/04/29 03:37:53;;;;;;;;;30.33;30.33;;;;;15.70;45.59;101802.63;5075327;27;45415;-62
2022/04/29 03:40:22;;;;;;;;;34.33;33.33;;;;;15.70;45.71;101805.25;5075028;27;45409;-62
2022/04/29 03:42:53;;;;;;;;;32.67;30.00;;;;;15.75;45.52;101796.22;5075054;27;46030;-62
2022/04/29 03:45:21;;;;;;;;;24.67;23.00;;;;;15.79;45.42;101792.50;5075248;27;45490;-63
2022/04/29 03:47:47;;;;;;;;;35.00;33.00;;;;;15.78;45.29;101790.78;5075268;27;45368;-65
2022/04/29 03:50:13;;;;;;;;;33.00;30.67;;;;;15.71;46.33;101786.63;5075113;27;45344;-62
2022/04/29 03:53:05;;;;;;;;;36.33;33.00;;;;;15.63;46.13;101778.91;5075061;28;45378;-63
2022/04/29 03:55:33;;;;;;;;;42.67;34.00;;;;;15.69;46.43;101775.22;5072983;27;45363;-62
2022/04/29 03:57:59;;;;;;;;;34.33;33.33;;;;;15.74;45.29;101767.06;5075103;28;45485;-62
2022/04/29 04:00:28;;;;;;;;;30.33;29.67;;;;;15.77;45.03;101767.84;5074981;27;45540;-62
2022/04/29 04:02:53;;;;;;;;;33.00;31.33;;;;;15.72;46.00;101764.50;5074788;27;46139;-62
2022/04/29 04:05:19;;;;;;;;;33.33;32.00;;;;;15.78;44.95;101771.34;5074880;27;45316;-62
2022/04/29 04:07:45;;;;;;;;;34.00;32.67;;;;;15.70;45.29;101760.19;5074955;27;45330;-61
2022/04/29 04:10:11;;;;;;;;;33.67;31.33;;;;;15.72;45.96;101767.16;5074905;27;45520;-62
2022/04/29 04:12:43;;;;;;;;;38.00;34.67;;;;;15.66;45.51;101762.03;5074884;27;47323;-62
2022/04/29 04:15:10;;;;;;;;;36.33;31.67;;;;;15.64;45.99;101772.72;5074678;27;45402;-61
2022/04/29 04:17:36;;;;;;;;;30.00;29.33;;;;;15.57;45.49;101771.19;5074659;27;45364;-61
2022/04/29 04:20:04;;;;;;;;;42.00;33.33;;;;;15.57;45.41;101767.69;5074678;27;45324;-62
2022/04/29 04:22:29;;;;;;;;;33.33;31.33;;;;;15.64;45.99;101766.56;5074368;27;45506;-62
2022/04/29 04:24:58;;;;;;;;;34.67;31.67;;;;;15.63;46.36;101772.75;5074617;27;45339;-62
2022/04/29 04:27:23;;;;;;;;;31.00;28.67;;;;;15.57;45.64;101768.53;5077400;27;45377;-62
2022/04/29 04:29:49;;;;;;;;;32.33;31.33;;;;;15.62;45.52;101766.59;5078181;27;45655;-61
2022/04/29 04:32:14;;;;;;;;;39.33;34.67;;;;;15.54;46.02;101768.66;5078044;27;46388;-61
2022/04/29 04:34:52;;;;;;;;;35.67;31.67;;;;;15.62;45.76;101784.28;5078121;27;47457;-61
2022/04/29 04:37:19;;;;;;;;;33.67;31.33;;;;;15.55;46.62;101780.13;5078350;27;45406;-62
2022/04/29 04:39:44;;;;;;;;;37.67;34.67;;;;;15.47;46.25;101780.41;5078019;27;45412;-62
2022/04/29 04:42:10;;;;;;;;;33.00;31.00;;;;;15.33;46.65;101772.13;5077741;27;45463;-62
2022/04/29 04:44:36;;;;;;;;;35.67;33.00;;;;;15.34;45.78;101771.19;5078086;27;45348;-62
2022/04/29 04:47:02;;;;;;;;;30.67;29.67;;;;;15.41;46.54;101770.91;5078224;28;45381;-62
2022/04/29 04:49:27;;;;;;;;;36.67;31.67;;;;;15.42;46.19;101783.25;5077789;27;45658;-61
2022/04/29 04:51:53;;;;;;;;;40.67;34.33;;;;;15.42;46.49;101785.00;5076491;28;47922;-61
2022/04/29 04:54:18;;;;;;;;;36.33;33.33;;;;;15.44;45.87;101788.47;5077652;27;45467;-61
2022/04/29 04:56:43;;;;;;;;;35.00;30.67;;;;;15.40;45.73;101781.59;5077793;27;45457;-62
2022/04/29 04:59:09;;;;;;;;;34.67;33.67;;;;;15.35;45.95;101784.38;5077785;27;45467;-61
2022/04/29 05:01:34;;;;;;;;;34.67;31.00;;;;;15.36;46.12;101785.25;5077579;27;46182;-62
2022/04/29 05:04:00;;;;;;;;;35.00;30.67;;;;;15.38;46.09;101786.06;5075832;28;45445;-62
2022/04/29 05:06:25;;;;;;;;;38.00;34.00;;;;;15.42;46.06;101792.97;5077602;27;45527;-61
2022/04/29 05:08:51;;;;;;;;;31.33;30.00;;;;;15.41;45.82;101786.81;5077661;27;45416;-62
2022/04/29 05:11:16;;;;;;;;;36.33;32.00;;;;;15.37;45.71;101795.81;5077475;27;45382;-61
2022/04/29 05:13:41;;;;;;;;;35.33;32.33;;;;;15.32;45.36;101781.00;5077384;27;45414;-62
2022/04/29 05:16:07;;;;;;;;;36.33;34.33;;;;;15.39;45.97;101793.97;5077254;27;45421;-62
2022/04/29 05:18:32;;;;;;;;;36.67;32.67;;;;;15.35;46.03;101802.94;5077113;28;45422;-62
2022/04/29 05:20:59;;;;;;;;;37.00;33.67;;;;;15.37;45.88;101798.47;5076851;27;45491;-62
2022/04/29 05:23:25;;;;;;;;;36.33;33.33;;;;;15.36;46.10;101798.50;5077020;27;45452;-63
2022/04/29 05:25:50;;;;;;;;;33.33;32.00;;;;;15.40;46.03;101795.69;5077024;27;45463;-62
2022/04/29 05:28:16;;;;;;;;;33.33;28.00;;;;;15.33;45.85;101794.19;5076980;27;45385;-61
2022/04/29 05:30:42;;;;;;;;;29.33;27.67;;;;;15.25;45.99;101798.88;5077035;27;45668;-61
2022/04/29 05:33:07;;;;;;;;;33.33;32.00;;;;;15.28;46.36;101803.22;5076034;28;45434;-61
2022/04/29 05:35:35;;;;;;;;;33.00;31.67;;;;;15.32;45.87;101796.91;5077144;27;45527;-61
2022/04/29 05:38:01;;;;;;;;;42.67;34.00;;;;;15.40;46.33;101801.00;5076516;27;45565;-62
2022/04/29 05:43:11;;;;;;;;;39.67;34.00;;;;;15.47;45.49;101814.88;5076757;28;45445;-62
2022/04/29 05:45:36;;;;;;;;;30.67;29.67;;;;;15.44;46.33;101820.28;5076792;28;45414;-61
2022/04/29 05:48:02;;;;;;;;;35.67;31.67;;;;;15.39;46.45;101816.94;5076734;27;45361;-62
2022/04/29 05:50:28;;;;;;;;;40.00;34.00;;;;;15.33;46.42;101811.88;5076662;27;45375;-63
2022/04/29 05:52:54;;;;;;;;;31.00;30.33;;;;;15.35;45.72;101820.66;5076819;27;45423;-62
2022/04/29 05:55:19;;;;;;;;;37.33;34.00;;;;;15.38;46.07;101816.09;5076687;27;45508;-60
2022/04/29 05:57:45;;;;;;;;;34.33;32.00;;;;;15.41;45.95;101820.41;5076484;27;46011;-61
2022/04/29 06:00:13;;;;;;;;;37.67;33.00;;;;;15.35;45.96;101818.84;5076356;27;45475;-60
2022/04/29 06:02:39;;;;;;;;;34.33;31.00;;;;;15.33;45.57;101819.81;5076293;28;45541;-61
2022/04/29 06:05:05;;;;;;;;;34.33;31.33;;;;;15.35;45.91;101837.41;5076507;27;45429;-62
2022/04/29 06:07:30;;;;;;;;;37.00;32.67;;;;;15.28;46.07;101833.22;5076284;28;45607;-62
2022/04/29 06:09:55;;;;;;;;;34.67;32.33;;;;;15.30;46.30;101841.13;5076212;27;45413;-61
2022/04/29 06:12:21;;;;;;;;;33.67;31.67;;;;;15.31;46.36;101849.03;5076154;27;45489;-61
2022/04/29 06:14:46;;;;;;;;;39.67;32.67;;;;;15.36;45.41;101848.88;5076427;28;45507;-62
2022/04/29 06:17:13;;;;;;;;;32.67;30.33;;;;;15.42;45.60;101840.69;5076580;27;45386;-62
2022/04/29 06:19:39;;;;;;;;;34.00;32.00;;;;;15.49;45.98;101839.56;5075859;27;46445;-62
2022/04/29 06:22:05;;;;;;;;;36.67;34.00;;;;;15.36;45.21;101817.91;5075766;27;45557;-62
2022/04/29 06:24:31;;;;;;;;;32.33;30.67;;;;;15.44;45.44;101846.81;5076187;27;45437;-62
2022/04/29 06:26:56;;;;;;;;;32.00;30.00;;;;;15.39;45.48;101843.44;5074851;28;45626;-64
2022/04/29 06:29:21;;;;;;;;;35.00;31.00;;;;;15.41;45.41;101846.94;5075967;27;45491;-61
2022/04/29 06:31:47;;;;;;;;;35.33;33.67;;;;;15.42;45.88;101841.56;5076502;27;45507;-61
2022/04/29 06:34:12;;;;;;;;;35.00;32.67;;;;;15.37;46.09;101850.63;5076135;27;45457;-61
2022/04/29 06:36:38;;;;;;;;;35.67;33.00;;;;;15.42;45.04;101843.34;5076129;27;45579;-61
2022/04/29 06:39:03;;;;;;;;;33.00;31.67;;;;;15.35;45.54;101840.06;5075560;27;45515;-62
2022/04/29 06:41:29;;;;;;;;;38.00;33.33;;;;;15.29;46.29;101845.59;5075750;27;45456;-62
2022/04/29 06:43:54;;;;;;;;;33.67;32.67;;;;;15.28;46.49;101846.47;5075691;27;45491;-62
2022/04/29 06:46:19;;;;;;;;;36.00;32.67;;;;;15.23;45.88;101854.63;5075783;27;45644;-62
2022/04/29 06:48:45;;;;;;;;;37.33;32.67;;;;;15.23;46.31;101854.63;5075270;27;50219;-62
2022/04/29 06:51:11;;;;;;;;;36.33;34.00;;;;;15.17;46.51;101859.25;5075602;27;45525;-62
2022/04/29 06:53:40;;;;;;;;;32.00;27.33;;;;;15.24;46.78;101856.34;5075512;27;45438;-63
2022/04/29 06:56:06;;;;;;;;;32.00;32.00;;;;;15.24;46.84;101852.81;5075659;27;45433;-66
2022/04/29 06:58:32;;;;;;;;;35.00;32.00;;;;;15.27;46.53;101851.84;5075596;27;45544;-62
2022/04/29 07:00:57;;;;;;;;;35.00;32.00;;;;;15.28;46.41;101843.84;5075653;27;45410;-62
2022/04/29 07:03:23;;;;;;;;;35.00;31.00;;;;;15.42;46.08;101861.91;5073945;28;45407;-62
2022/04/29 07:05:51;;;;;;;;;38.00;35.00;;;;;15.46;45.88;101855.59;5075395;27;45681;-64
2022/04/29 07:08:16;;;;;;;;;35.00;31.67;;;;;15.50;45.88;101857.22;5075235;27;47019;-62
2022/04/29 07:10:42;;;;;;;;;36.00;34.00;;;;;15.55;45.98;101854.38;5075092;27;45346;-63
2022/04/29 07:13:09;;;;;;;;;35.00;32.67;;;;;15.51;46.41;101844.81;5075500;27;45370;-64
2022/04/29 07:15:37;;;;;;;;;34.67;31.33;;;;;15.53;45.81;101849.16;5091084;27;45697;-62
2022/04/29 07:18:02;;;;;;;;;39.00;33.33;;;;;15.52;46.10;101857.16;5075320;27;45379;-62
2022/04/29 07:20:28;;;;;;;;;42.67;35.67;;;;;15.51;45.99;101853.63;5075105;28;45462;-62
2022/04/29 07:22:53;;;;;;;;;39.00;34.33;;;;;15.49;46.65;101847.50;5075203;27;45567;-62
2022/04/29 07:25:19;;;;;;;;;37.33;34.00;;;;;15.51;45.91;101860.72;5073843;28;45670;-62
2022/04/29 07:27:45;;;;;;;;;38.33;33.67;;;;;15.50;45.97;101872.22;5074912;27;46993;-62
2022/04/29 07:30:11;;;;;;;;;38.67;34.00;;;;;15.50;46.03;101883.72;5075147;27;45547;-62
2022/04/29 07:32:37;;;;;;;;;38.00;34.33;;;;;15.46;45.49;101876.78;5075040;27;45472;-63
2022/04/29 07:43:14;;;;;;;;;36.67;34.00;;;;;15.45;46.40;101883.03;5075191;28;45542;-62
2022/04/29 07:45:42;;;;;;;;;32.67;31.67;;;;;15.51;46.51;101877.50;5074973;27;45437;-63
2022/04/29 07:48:07;;;;;;;;;41.33;35.67;;;;;15.55;45.98;101880.91;5074895;27;45564;-62
2022/04/29 07:50:35;;;;;;;;;37.00;34.00;;;;;15.48;45.65;101869.66;5075071;27;45845;-63
2022/04/29 07:53:02;;;;;;;;;39.67;34.00;;;;;15.45;46.29;101870.63;5075227;27;45514;-63
2022/04/29 07:55:27;;;;;;;;;42.33;34.33;;;;;15.39;46.90;101876.16;5075165;27;45525;-62
2022/04/29 07:57:53;;;;;;;;;43.00;36.00;;;;;15.42;46.39;101875.16;5074641;27;45444;-63
2022/04/29 08:00:19;;;;;;;;;39.67;35.00;;;;;15.45;46.67;101877.72;5074964;27;45438;-63
2022/04/29 08:02:45;;;;;;;;;42.33;37.00;;;;;15.46;47.07;101882.09;5077619;27;45422;-63
2022/04/29 08:05:11;;;;;;;;;39.33;34.67;;;;;15.52;47.66;101886.31;5078810;27;45551;-63
2022/04/29 08:07:37;;;;;;;;;39.75;35.75;;;;;15.59;46.40;101871.94;5078195;27;46106;-63
2022/04/29 08:10:03;;;;;;;;;41.25;36.75;;;;;15.60;46.36;101879.81;5078262;27;45445;-63
2022/04/29 08:12:28;;;;;;;;;35.75;33.75;;;;;15.64;46.97;101870.84;5078245;27;45451;-63
2022/04/29 08:14:54;;;;;;;;;46.75;37.00;;;;;15.71;46.75;101874.16;5076982;28;45594;-62
2022/04/29 08:17:20;;;;;;;;;42.00;36.50;;;;;15.71;47.36;101871.50;5076842;28;46752;-62
2022/04/29 08:19:48;;;;;;;;;43.50;37.50;;;;;15.77;46.75;101863.34;5078242;27;45493;-62
2022/04/29 08:22:14;;;;;;;;;49.75;41.75;;;;;15.88;47.35;101871.75;5077822;27;45474;-62
2022/04/29 08:24:40;;;;;;;;;45.00;36.50;;;;;15.90;46.34;101869.03;5076632;28;45586;-62
2022/04/29 08:27:05;;;;;;;;;47.50;39.25;;;;;15.88;47.16;101868.25;5077690;27;46001;-62
2022/04/29 08:29:30;;;;;;;;;51.75;42.50;;;;;15.79;47.39;101860.63;5077743;27;45303;-62
2022/04/29 08:31:56;;;;;;;;;47.75;38.25;;;;;15.82;47.20;101871.97;5076955;28;45403;-62
2022/04/29 08:34:21;;;;;;;;;46.75;37.75;;;;;15.87;46.62;101872.66;5078004;27;45422;-62
2022/04/29 08:36:47;;;;;;;;;49.75;39.75;;;;;15.89;47.39;101883.22;5076665;28;45573;-62
2022/04/29 08:39:12;;;;;;;;;48.75;39.75;;;;;15.81;47.11;101861.44;5078083;27;45413;-62
2022/04/29 08:41:39;;;;;;;;;48.25;40.00;;;;;15.99;47.30;101889.06;5076326;28;45375;-62
2022/04/29 08:44:12;;;;;;;;;50.50;40.75;;;;;16.04;46.91;101889.75;5077559;27;45391;-62
2022/04/29 08:46:41;;;;;;;;;50.00;42.25;;;;;16.09;46.69;101893.97;5077673;27;46288;-62
2022/04/29 08:49:08;;;;;;;;;46.75;40.75;;;;;16.11;47.25;101889.44;5076020;28;45762;-62
2022/04/29 08:51:36;;;;;;;;;49.25;42.00;;;;;16.18;46.48;101898.06;5077459;27;45475;-62
2022/04/29 08:54:04;;;;;;;;;48.25;39.50;;;;;16.19;46.74;101897.13;5093358;27;45519;-62
2022/04/29 08:59:18;;;;;;;;;49.50;41.75;;;;;16.32;46.73;101886.91;5077328;28;45347;-62
2022/04/29 09:01:44;;;;;;;;;51.00;41.25;;;;;16.39;46.84;101891.06;5077416;27;45461;-62
2022/04/29 09:04:09;;;;;;;;;46.50;38.75;;;;;16.39;46.45;101887.53;5075851;28;45663;-62
2022/04/29 09:06:46;;;;;;;;;54.25;43.50;;;;;16.40;45.86;101876.84;5077425;27;45589;-62
2022/04/29 09:09:11;;;;;;;;;46.75;38.75;;;;;16.44;45.59;101882.91;5077247;28;45385;-61
2022/04/29 09:11:37;;;;;;;;;48.50;40.00;;;;;16.35;46.65;101874.38;5077202;27;45388;-62
2022/04/29 09:14:23;;;;;;;;;49.25;40.50;;;;;16.47;46.31;101877.47;5075654;27;45566;-61
2022/04/29 09:16:49;;;;;;;;;46.25;40.25;;;;;16.51;46.41;101877.28;5076892;27;45590;-62
2022/04/29 09:19:35;;;;;;;;;50.00;43.25;;;;;16.59;46.00;101881.44;5076804;27;45343;-63
2022/04/29 09:22:07;;;;;;;;;52.50;44.00;;;;;16.62;46.34;101881.31;5076902;28;45414;-62
2022/04/29 09:24:33;;;;;;;;;44.50;38.00;;;;;16.67;46.02;101874.03;5076994;27;45437;-62
2022/04/29 09:27:05;;;;;;;;;53.50;42.75;;;;;16.75;45.76;101874.59;5077002;27;46403;-61
2022/04/29 09:29:39;;;;;;;;;53.25;44.50;;;;;16.75;45.74;101878.09;5076856;27;45343;-60
2022/04/29 09:32:05;;;;;;;;;52.00;43.25;;;;;16.72;45.62;101872.91;5076952;27;45491;-62
2022/04/29 09:35:03;;;;;;;;;50.25;42.50;;;;;16.82;46.35;101868.13;5076791;27;45695;-62
2022/04/29 09:37:30;;;;;;;;;49.75;41.00;;;;;16.86;46.14;101875.03;5053051;27;46306;-62
2022/04/29 09:39:58;;;;;;;;;54.00;43.50;;;;;16.94;45.75;101872.94;5076702;27;45517;-62
2022/04/29 09:42:35;;;;;;;;;51.75;43.75;;;;;17.04;45.39;101873.41;5076948;27;45445;-62
2022/04/29 09:45:13;;;;;;;;;54.00;45.75;;;;;17.03;45.34;101861.03;5076796;28;45338;-62
2022/04/29 09:47:38;;;;;;;;;50.75;42.25;;;;;17.04;45.63;101859.28;5076644;28;46055;-62
2022/04/29 09:50:04;;;;;;;;;49.25;39.75;;;;;17.13;45.41;101861.53;5076398;28;45483;-61
2022/04/29 09:52:30;;;;;;;;;47.50;39.25;;;;;17.19;45.55;101854.16;5076972;27;45395;-61
2022/04/29 09:55:13;;;;;;;;;51.00;41.50;;;;;17.20;45.41;101847.91;5076895;27;45508;-61
2022/04/29 09:57:56;;;;;;;;;54.25;44.75;;;;;17.38;44.99;101856.91;5076618;27;45459;-61
2022/04/29 10:00:23;;;;;;;;;51.25;42.75;;;;;17.47;44.89;101850.31;5076316;27;45367;-61
2022/04/29 10:02:52;;;;;;;;;46.25;39.50;;;;;17.49;44.53;101859.09;5076248;27;45469;-62
2022/04/29 10:05:18;;;;;;;;;47.67;40.00;;;;;17.55;44.25;101853.47;5076023;27;45452;-61
2022/04/29 10:07:44;;;;;;;;;47.50;39.75;;;;;17.60;44.05;101846.16;5076140;27;45411;-62
2022/04/29 10:10:10;;;;;;;;;48.67;41.00;;;;;17.66;44.05;101858.31;5074394;28;45631;-62
2022/04/29 10:12:36;;;;;;;;;42.75;37.75;;;;;17.71;44.00;101864.31;5076425;27;45414;-62
2022/04/29 10:15:09;;;;;;;;;49.25;41.00;;;;;17.70;43.61;101859.03;5076170;27;45671;-62
2022/04/29 10:23:11;;;;;;;;;46.33;39.00;;;;;17.94;43.83;101857.09;5076091;28;45430;-62
2022/04/29 10:25:43;;;;;;;;;44.33;38.67;;;;;17.92;43.22;101850.97;5075508;27;45591;-65
2022/04/29 10:28:10;;;;;;;;;49.67;39.33;;;;;18.04;43.25;101867.25;5075663;28;46155;-62
2022/04/29 10:30:38;;;;;;;;;44.67;36.00;;;;;18.06;42.84;101854.72;5075977;27;45484;-62
2022/04/29 10:33:03;;;;;;;;;47.67;40.00;;;;;18.11;42.59;101865.19;5075962;27;45407;-62
2022/04/29 10:35:43;;;;;;;;;48.00;39.33;;;;;18.18;43.01;101858.59;5075818;27;45476;-62
2022/04/29 10:38:12;;;;;;;;;45.33;36.00;;;;;18.24;42.78;101861.00;5075577;27;46083;-62
2022/04/29 10:40:38;;;;;;;;;46.00;39.33;;;;;18.28;42.76;101856.38;5075669;27;45565;-61
2022/04/29 10:43:07;;;;;;;;;45.00;36.00;;;;;18.35;42.58;101848.94;5075766;27;45494;-61
2022/04/29 10:45:34;;;;;;;;;49.67;42.00;;;;;18.41;42.73;101856.66;5075813;27;45256;-62
2022/04/29 10:48:32;;;;;;;;;45.67;38.00;;;;;18.47;42.38;101851.88;5073952;28;46233;-62
2022/04/29 10:50:58;;;;;;;;;46.33;38.33;;;;;18.54;42.24;101844.47;5075601;27;45478;-61
2022/04/29 10:53:24;;;;;;;;;49.00;40.33;;;;;18.58;41.18;101853.19;5075552;28;45500;-62
2022/04/29 10:55:50;;;;;;;;;41.33;36.00;;;;;18.50;42.35;101832.22;5075398;27;45445;-62
2022/04/29 10:58:21;;;;;;;;;47.67;38.67;;;;;18.60;41.92;101851.31;5075425;27;46080;-62
2022/04/29 11:00:56;;;;;;;;;43.67;36.67;;;;;18.66;41.99;101843.84;5075347;28;45461;-62
2022/04/29 11:03:46;;;;;;;;;44.33;37.67;;;;;18.70;41.95;101844.59;5075283;27;45553;-62
2022/04/29 11:06:13;;;;;;;;;43.67;36.33;;;;;18.71;41.92;101854.31;5073996;28;45629;-62
2022/04/29 11:08:40;;;;;;;;;49.33;41.00;;;;;18.66;41.73;101843.00;5075029;28;46236;-62
2022/04/29 11:11:05;;;;;;;;;47.33;40.00;;;;;18.64;41.41;101843.06;5075016;27;45635;-62
2022/04/29 11:13:36;;;;;;;;;45.00;36.67;;;;;18.62;41.60;101844.97;5075160;28;45425;-62
2022/04/29 11:16:15;;;;;;;;;44.67;38.00;;;;;18.68;42.03;101841.13;5075404;27;45327;-62
2022/04/29 11:18:43;;;;;;;;;39.67;35.00;;;;;18.73;42.03;101849.75;5074873;27;45960;-62
2022/04/29 11:26:48;;;;;;;;;48.67;38.33;;;;;18.86;42.15;101836.69;5075130;28;45366;-62
2022/04/29 11:29:14;;;;;;;;;45.00;38.33;;;;;18.88;41.61;101838.34;5074266;27;45594;-64
2022/04/29 11:31:40;;;;;;;;;53.00;44.67;;;;;18.91;41.52;101834.66;5073708;28;45375;-63
2022/04/29 11:34:08;;;;;;;;;46.33;38.00;;;;;18.93;41.71;101830.97;5074858;28;45434;-62
2022/04/29 11:36:34;;;;;;;;;45.33;36.67;;;;;18.95;41.37;101822.91;5074361;27;45574;-63